De Valls Bluff, Arkansas
Current Conditions -  °F | °C
As of 11:55 PM on Friday 19 Dec 2014 (Local Time) from KSGT Reporting Station
Overcast Overcast  
Wind Chill: 35°   Ceiling: 6000
Heat Index: 39°   Visibility: NA
Dew Point: 36°   Wind: 6mph
Humidity: 87%   Direction: 30°NNE
Pressure: 30.24"   Gusts: NA
Location:  34.78°N, 91.46°W
Report Text: KSGT 200555Z 03005KT OVC060 04/02 A3024 RMK AO1 10060 20040 57003
Loading
Personal Weather Stations






























Interactive Weather Map New forecast layout! Learn more

10-Day Weather Forecast

Advertisements
Track Severe Weather on mobile